X  Luk Metar data     EKRN Bornholm Airport
Temperatur
11°C Temperatur
10°C Duggpunkt
94% Fugtighed



Vind
7 M/S
15 MPT
24 KM/T
13 KNOB



200°
SSV
Nuværende forhold

Delvis skyet Delvis skyet
Tryk 1006.92 (hPa) - 29.73 (inHg)
Sigt 6.2 (mil) - 10 (km)
Lufthavn
Lufthavnskode EKRN

Lokation: Bornholm Airport
Afstand: 14 (km)

Metar:
EKRN 282250Z AUTO 20013KT 9999 FEW036/// SCT094/// 11/10 Q1007

Tid: 28-10-2020 23:50 CET